createdAt,value
2022-12-20T00:01:30.350Z,102479.38
2022-12-20T00:03:59.572Z,102479.09
2022-12-20T00:06:26.655Z,102481.34
2022-12-20T00:08:55.177Z,102478.59
2022-12-20T00:11:22.021Z,102477.69
2022-12-20T00:13:48.446Z,102481.31
2022-12-20T00:16:20.528Z,102473.69
2022-12-20T00:18:47.891Z,102475.97
2022-12-20T00:21:15.107Z,102471.28
2022-12-20T00:23:42.199Z,102473.38
2022-12-20T00:26:12.320Z,102456.97
2022-12-20T00:28:40.437Z,102454.16
2022-12-20T00:31:07.895Z,102460.13
2022-12-20T00:33:35.920Z,102463.28
2022-12-20T00:36:02.335Z,102468.59
2022-12-20T00:38:28.881Z,102468.31
2022-12-20T00:41:06.849Z,102453.72
2022-12-20T00:43:33.719Z,102454.28
2022-12-20T00:46:01.006Z,102445.72
2022-12-20T00:48:28.648Z,102459.66
2022-12-20T00:51:00.288Z,102458.97
2022-12-20T00:53:27.453Z,102452.31
2022-12-20T00:55:54.494Z,102447.22
2022-12-20T00:58:21.532Z,102443.94
2022-12-20T01:00:55.927Z,102444.34
2022-12-20T01:03:23.467Z,102440.19
2022-12-20T01:05:56.275Z,102437.84
2022-12-20T01:08:23.683Z,102428.13
2022-12-20T01:11:00.039Z,102419.72
2022-12-20T01:13:27.073Z,102435.16
2022-12-20T01:15:53.623Z,102438.13
2022-12-20T01:18:20.137Z,102435.50
2022-12-20T01:20:46.641Z,102450.31
2022-12-20T01:23:13.046Z,102452.66
2022-12-20T01:25:39.441Z,102452.47
2022-12-20T01:28:05.915Z,102441.53
2022-12-20T01:30:32.363Z,102445.44
2022-12-20T01:32:58.744Z,102436.16
2022-12-20T01:35:25.162Z,102432.88
2022-12-20T01:37:51.561Z,102435.00
2022-12-20T01:40:17.974Z,102426.94
2022-12-20T01:42:44.375Z,102430.41
2022-12-20T01:45:21.767Z,102423.66
2022-12-20T01:47:48.240Z,102416.50
2022-12-20T01:50:14.670Z,102417.88
2022-12-20T01:52:45.349Z,102410.41
2022-12-20T01:55:15.114Z,102407.94
2022-12-20T01:57:49.185Z,102412.13
2022-12-20T02:00:17.203Z,102406.09
2022-12-20T02:02:46.585Z,102408.00
2022-12-20T02:05:14.609Z,102410.56
2022-12-20T02:07:43.657Z,102412.91
2022-12-20T02:10:12.460Z,102405.97
2022-12-20T02:12:44.822Z,102416.09
2022-12-20T02:15:20.234Z,102404.94
2022-12-20T02:18:15.922Z,102413.25
2022-12-20T02:20:48.424Z,102401.94
2022-12-20T02:23:33.506Z,102401.72
2022-12-20T02:26:34.625Z,102402.56
2022-12-20T02:29:30.106Z,102397.66
2022-12-20T02:32:23.265Z,102397.75
2022-12-20T02:34:50.555Z,102393.34
2022-12-20T02:37:17.097Z,102399.78
2022-12-20T02:39:45.926Z,102399.56
2022-12-20T02:42:16.045Z,102394.97
2022-12-20T02:45:08.389Z,102392.91
2022-12-20T02:47:41.255Z,102386.19
2022-12-20T02:50:09.817Z,102391.50
2022-12-20T02:52:38.631Z,102389.66
2022-12-20T02:55:05.806Z,102381.81
2022-12-20T02:58:01.586Z,102383.84
2022-12-20T03:00:34.154Z,102382.22
2022-12-20T03:03:37.042Z,102381.72
2022-12-20T03:06:03.957Z,102385.00
2022-12-20T03:08:30.628Z,102379.44
2022-12-20T03:10:57.173Z,102378.03
2022-12-20T03:13:25.054Z,102375.19
2022-12-20T03:15:51.921Z,102371.38
2022-12-20T03:18:18.601Z,102370.69
2022-12-20T03:20:45.064Z,102366.00
2022-12-20T03:23:11.475Z,102356.69
2022-12-20T03:25:37.937Z,102352.00
2022-12-20T03:28:04.952Z,102354.56
2022-12-20T03:30:31.751Z,102358.06
2022-12-20T03:32:58.293Z,102357.09
2022-12-20T03:35:24.795Z,102361.75
2022-12-20T03:37:51.199Z,102353.28
2022-12-20T03:40:17.675Z,102346.13
2022-12-20T03:42:44.160Z,102357.44
2022-12-20T03:45:11.195Z,102358.88
2022-12-20T03:47:37.933Z,102354.28
2022-12-20T03:50:06.226Z,102354.94
2022-12-20T03:52:32.847Z,102354.94
2022-12-20T03:54:59.286Z,102355.56
2022-12-20T03:57:25.761Z,102350.41
2022-12-20T03:59:54.159Z,102352.94
2022-12-20T04:02:21.631Z,102349.69
2022-12-20T04:04:48.791Z,102350.13
2022-12-20T04:07:15.625Z,102351.53
2022-12-20T04:09:42.062Z,102343.16
2022-12-20T04:12:08.492Z,102345.72
2022-12-20T04:14:35.840Z,102350.59
2022-12-20T04:17:02.254Z,102337.44
2022-12-20T04:19:28.756Z,102338.06
2022-12-20T04:22:02.695Z,102338.47
2022-12-20T04:24:31.510Z,102331.13
2022-12-20T04:26:57.955Z,102322.53
2022-12-20T04:29:24.386Z,102326.50
2022-12-20T04:31:50.930Z,102320.28
2022-12-20T04:34:17.583Z,102320.06
2022-12-20T04:36:43.993Z,102315.88
2022-12-20T04:39:10.528Z,102306.81
2022-12-20T04:41:36.984Z,102296.31
2022-12-20T04:44:03.636Z,102296.31
2022-12-20T04:46:30.190Z,102299.50
2022-12-20T04:48:59.018Z,102297.63
2022-12-20T04:51:27.578Z,102308.78
2022-12-20T04:53:54.536Z,102302.75
2022-12-20T04:56:28.702Z,102311.63
2022-12-20T04:58:57.631Z,102305.28
2022-12-20T05:01:24.295Z,102308.78
2022-12-20T05:03:50.974Z,102304.81
2022-12-20T05:06:17.863Z,102302.34
2022-12-20T05:08:44.364Z,102289.47
2022-12-20T05:11:11.818Z,102294.56
2022-12-20T05:13:38.957Z,102293.53
2022-12-20T05:16:05.694Z,102292.69
2022-12-20T05:18:32.506Z,102299.66
2022-12-20T05:21:19.307Z,102292.53
2022-12-20T05:24:05.044Z,102299.66
2022-12-20T05:26:33.958Z,102295.19
2022-12-20T05:29:00.361Z,102287.53
2022-12-20T05:31:27.028Z,102300.06
2022-12-20T05:33:54.229Z,102291.00
2022-12-20T05:36:20.702Z,102292.94
2022-12-20T05:38:47.168Z,102295.06
2022-12-20T05:41:13.638Z,102294.00
2022-12-20T05:43:40.412Z,102293.31
2022-12-20T05:46:07.173Z,102292.06
2022-12-20T05:48:34.151Z,102296.38
2022-12-20T05:51:01.246Z,102288.03
2022-12-20T05:53:27.816Z,102292.63
2022-12-20T05:55:54.522Z,102300.50
2022-12-20T05:58:21.535Z,102304.53
2022-12-20T06:00:48.010Z,102299.72
2022-12-20T06:03:18.891Z,102305.16
2022-12-20T06:05:46.417Z,102302.63
2022-12-20T06:08:13.664Z,102309.78
2022-12-20T06:10:44.154Z,102300.06
2022-12-20T06:13:11.294Z,102305.38
2022-12-20T06:15:38.391Z,102306.59
2022-12-20T06:18:05.924Z,102305.28
2022-12-20T06:20:33.706Z,102304.38
2022-12-20T06:23:00.513Z,102299.94
2022-12-20T06:25:27.183Z,102299.66
2022-12-20T06:27:53.967Z,102298.44
2022-12-20T06:30:20.519Z,102297.97
2022-12-20T06:32:47.062Z,102287.75
2022-12-20T06:35:14.613Z,102290.09
2022-12-20T06:37:42.137Z,102288.03
2022-12-20T06:40:10.841Z,102286.63
2022-12-20T06:42:37.499Z,102290.09
2022-12-20T06:45:05.005Z,102300.50
2022-12-20T06:47:31.509Z,102296.53
2022-12-20T06:49:58.158Z,102299.78
2022-12-20T06:52:24.803Z,102293.13
2022-12-20T06:54:52.692Z,102291.59
2022-12-20T06:57:19.441Z,102298.53
2022-12-20T06:59:45.985Z,102294.84
2022-12-20T07:02:12.627Z,102301.59
2022-12-20T07:04:39.304Z,102298.53
2022-12-20T07:07:06.203Z,102305.28
2022-12-20T07:09:32.897Z,102306.91
2022-12-20T07:11:59.797Z,102314.47
2022-12-20T07:14:26.296Z,102313.25
2022-12-20T07:16:52.799Z,102304.19
2022-12-20T07:19:19.247Z,102309.28
2022-12-20T07:21:47.150Z,102313.44
2022-12-20T07:24:13.574Z,102301.81
2022-12-20T07:26:39.998Z,102315.50
2022-12-20T07:29:10.463Z,102309.78
2022-12-20T07:31:40.189Z,102318.66
2022-12-20T07:34:06.658Z,102327.94
2022-12-20T07:36:33.092Z,102310.38
2022-12-20T07:38:59.523Z,102311.28
2022-12-20T07:41:26.054Z,102317.97
2022-12-20T07:43:52.566Z,102303.50
2022-12-20T07:46:19.441Z,102306.69
2022-12-20T07:48:45.992Z,102313.84
2022-12-20T07:51:25.661Z,102309.03
2022-12-20T07:54:02.295Z,102310.78
2022-12-20T07:56:29.869Z,102308.44
2022-12-20T07:58:59.525Z,102309.88
2022-12-20T08:01:28.202Z,102307.59
2022-12-20T08:04:00.249Z,102304.38
2022-12-20T08:06:26.783Z,102312.41
2022-12-20T08:08:57.621Z,102303.41
2022-12-20T08:11:25.846Z,102310.56
2022-12-20T08:13:57.721Z,102318.22
2022-12-20T08:16:25.859Z,102316.38
2022-12-20T08:18:52.683Z,102314.97
2022-12-20T08:21:19.165Z,102312.13
2022-12-20T08:23:45.614Z,102309.34
2022-12-20T08:26:12.034Z,102299.88
2022-12-20T08:28:38.446Z,102315.38
2022-12-20T08:31:07.289Z,102309.34
2022-12-20T08:33:36.067Z,102305.38
2022-12-20T08:36:06.455Z,102308.34
2022-12-20T08:38:33.360Z,102310.22
2022-12-20T08:41:09.059Z,102303.75
2022-12-20T08:43:35.614Z,102297.34
2022-12-20T08:46:02.554Z,102288.44
2022-12-20T08:48:29.275Z,102295.81
2022-12-20T08:50:57.577Z,102293.25
2022-12-20T08:53:24.672Z,102294.78
2022-12-20T08:55:51.620Z,102291.53
2022-12-20T08:58:18.308Z,102289.00
2022-12-20T09:00:45.406Z,102297.34
2022-12-20T09:03:13.949Z,102297.34
2022-12-20T09:05:45.379Z,102295.22
2022-12-20T09:08:11.931Z,102291.66
2022-12-20T09:10:38.475Z,102294.91
2022-12-20T09:13:04.956Z,102287.69
2022-12-20T09:15:31.882Z,102286.84
2022-12-20T09:18:00.202Z,102301.66
2022-12-20T09:20:27.068Z,102304.31
2022-12-20T09:22:53.477Z,102309.00
2022-12-20T09:25:19.936Z,102302.56
2022-12-20T09:27:46.333Z,102303.16
2022-12-20T09:30:12.896Z,102300.34
2022-12-20T09:32:39.372Z,102307.59
2022-12-20T09:35:06.627Z,102301.56
2022-12-20T09:37:34.692Z,102296.88
2022-12-20T09:40:07.455Z,102308.91
2022-12-20T09:42:34.394Z,102296.88
2022-12-20T09:45:10.284Z,102296.47
2022-12-20T09:47:37.860Z,102295.75
2022-12-20T09:50:08.179Z,102302.69
2022-12-20T09:53:18.478Z,102286.13
2022-12-20T09:55:56.539Z,102282.13
2022-12-20T09:58:31.764Z,102288.09
2022-12-20T10:00:58.584Z,102282.47
2022-12-20T10:03:32.628Z,102285.63
2022-12-20T10:06:09.079Z,102284.31
2022-12-20T10:08:52.764Z,102277.88
2022-12-20T10:12:09.819Z,102282.13
2022-12-20T10:15:00.474Z,102279.28
2022-12-20T10:17:54.001Z,102273.50
2022-12-20T10:20:28.597Z,102272.47
2022-12-20T10:23:15.274Z,102269.91
2022-12-20T10:25:43.202Z,102265.22
2022-12-20T10:28:14.002Z,102267.97
2022-12-20T10:30:41.281Z,102270.75
2022-12-20T10:33:21.871Z,102260.53
2022-12-20T10:35:50.508Z,102243.88
2022-12-20T10:38:18.345Z,102239.50
2022-12-20T10:43:49.477Z,102246.03
2022-12-20T10:46:19.455Z,102236.53
2022-12-20T10:48:48.232Z,102230.00
2022-12-20T10:51:22.558Z,102230.38
2022-12-20T10:54:03.946Z,102220.31
2022-12-20T10:56:34.147Z,102226.53
2022-12-20T10:59:23.891Z,102225.81
2022-12-20T11:01:50.697Z,102223.78
2022-12-20T11:04:30.747Z,102219.06
2022-12-20T11:06:58.397Z,102207.94
2022-12-20T11:09:26.706Z,102211.53
2022-12-20T11:12:07.700Z,102208.84
2022-12-20T11:14:39.560Z,102203.34
2022-12-20T11:17:28.196Z,102200.38
2022-12-20T11:20:22.387Z,102196.59
2022-12-20T11:23:16.001Z,102182.84
2022-12-20T11:26:00.642Z,102180.16
2022-12-20T11:28:50.323Z,102172.28
2022-12-20T11:31:35.632Z,102166.19
2022-12-20T11:34:03.338Z,102171.59
2022-12-20T11:36:55.951Z,102167.09
2022-12-20T11:40:09.644Z,102163.50
2022-12-20T11:42:54.437Z,102151.63
2022-12-20T11:45:26.850Z,102151.03
2022-12-20T11:48:19.425Z,102139.50
2022-12-20T11:50:54.146Z,102142.47
2022-12-20T11:53:24.649Z,102139.69
2022-12-20T11:55:56.225Z,102138.66
2022-12-20T11:58:28.662Z,102145.50
2022-12-20T12:01:08.663Z,102135.50
2022-12-20T12:03:37.763Z,102134.06
2022-12-20T12:06:20.402Z,102125.66
2022-12-20T12:08:53.381Z,102125.66
2022-12-20T12:12:05.132Z,102121.47
2022-12-20T12:14:45.743Z,102123.84
2022-12-20T12:17:21.879Z,102123.75
2022-12-20T12:19:50.535Z,102117.63
2022-12-20T12:22:24.571Z,102117.09
2022-12-20T12:24:56.030Z,102118.97
2022-12-20T12:27:24.787Z,102093.94
2022-12-20T12:29:57.039Z,102081.03
2022-12-20T12:32:31.199Z,102087.47
2022-12-20T12:35:25.727Z,102075.84
2022-12-20T12:38:33.981Z,102066.84
2022-12-20T12:41:06.594Z,102065.03
2022-12-20T12:43:51.896Z,102073.38
2022-12-20T12:46:29.880Z,102070.50
2022-12-20T12:49:01.896Z,102067.66
2022-12-20T12:51:33.467Z,102064.88
2022-12-20T12:54:06.469Z,102050.88
2022-12-20T12:56:44.665Z,102067.50
2022-12-20T12:59:24.151Z,102049.94
2022-12-20T13:02:11.015Z,102055.78
2022-12-20T13:05:12.720Z,102052.31
2022-12-20T13:07:43.525Z,102057.13
2022-12-20T13:10:10.980Z,102054.63
2022-12-20T13:12:41.002Z,102046.97
2022-12-20T13:15:19.656Z,102047.34
2022-12-20T13:17:52.172Z,102039.09
2022-12-20T13:20:30.793Z,102033.44
2022-12-20T13:23:17.297Z,102025.78
2022-12-20T13:25:48.247Z,102034.13
2022-12-20T13:28:23.682Z,102035.56
2022-12-20T13:30:53.225Z,102029.03
2022-12-20T13:33:24.881Z,102031.91
2022-12-20T13:35:55.689Z,102038.97
2022-12-20T13:38:43.427Z,102040.47
2022-12-20T13:41:19.743Z,102035.94
2022-12-20T13:43:47.932Z,102041.66
2022-12-20T13:46:24.259Z,102040.00
2022-12-20T13:48:54.430Z,102040.47
2022-12-20T13:51:24.756Z,102042.50
2022-12-20T13:53:58.021Z,102041.06
2022-12-20T13:56:35.751Z,102043.00
2022-12-20T13:59:12.512Z,102030.03
2022-12-20T14:01:48.577Z,102032.81
2022-12-20T14:04:16.041Z,102033.84
2022-12-20T14:06:42.714Z,102034.38
2022-12-20T14:09:29.915Z,102028.84
2022-12-20T14:12:17.889Z,102020.44
2022-12-20T14:14:50.110Z,102025.91
2022-12-20T14:17:44.385Z,102028.16
2022-12-20T14:20:15.795Z,102024.69
2022-12-20T14:22:52.222Z,102019.97
2022-12-20T14:25:44.723Z,102021.09
2022-12-20T14:28:31.330Z,102020.28
2022-12-20T14:30:59.866Z,102018.63
2022-12-20T14:33:33.843Z,102012.63
2022-12-20T14:36:15.598Z,102017.72
2022-12-20T14:38:44.540Z,102009.63
2022-12-20T14:41:29.642Z,102008.69
2022-12-20T14:43:59.327Z,102009.78
2022-12-20T14:46:25.851Z,102009.63
2022-12-20T14:49:31.887Z,102008.69
2022-12-20T14:52:14.361Z,102011.56
2022-12-20T14:55:07.904Z,101996.66
2022-12-20T14:57:35.089Z,101993.34
2022-12-20T15:00:10.549Z,101992.97
2022-12-20T15:02:44.168Z,101987.50
2022-12-20T15:05:32.264Z,101986.81
2022-12-20T15:08:17.478Z,101987.22
2022-12-20T15:11:22.850Z,101986.50
2022-12-20T15:13:53.070Z,101983.41
2022-12-20T15:16:24.903Z,101979.38
2022-12-20T15:18:59.448Z,101982.13
2022-12-20T15:21:30.581Z,101980.28
2022-12-20T15:23:59.821Z,101985.06
2022-12-20T15:26:27.245Z,101965.88
2022-12-20T15:28:54.580Z,101970.06
2022-12-20T15:31:30.794Z,101978.47
2022-12-20T15:33:59.311Z,101976.28
2022-12-20T15:36:28.651Z,101977.41
2022-12-20T15:39:12.442Z,101971.91
2022-12-20T15:41:48.675Z,101976.28
2022-12-20T15:44:23.626Z,101968.25
2022-12-20T15:46:51.039Z,101985.38
2022-12-20T15:49:22.446Z,101983.03
2022-12-20T15:51:52.351Z,101994.69
2022-12-20T15:54:29.504Z,101991.53
2022-12-20T15:56:58.105Z,101991.53
2022-12-20T15:59:58.510Z,101992.69
2022-12-20T16:02:24.210Z,101994.13
2022-12-20T16:04:51.600Z,101993.22
2022-12-20T16:07:18.072Z,101986.81
2022-12-20T16:09:44.732Z,101991.94
2022-12-20T16:12:16.002Z,101980.97
2022-12-20T16:14:42.527Z,101981.97
2022-12-20T16:17:15.142Z,101990.41
2022-12-20T16:19:43.075Z,101981.84
2022-12-20T16:22:19.292Z,101979.69
2022-12-20T16:24:46.333Z,101994.47
2022-12-20T16:27:13.082Z,101986.44
2022-12-20T16:29:41.288Z,101981.31
2022-12-20T16:32:19.531Z,101975.50
2022-12-20T16:34:46.359Z,101974.00
2022-12-20T16:37:13.620Z,101971.75
2022-12-20T16:39:41.227Z,101973.59
2022-12-20T16:42:22.455Z,101976.53
2022-12-20T16:44:53.310Z,101975.41
2022-12-20T16:47:19.791Z,101975.41
2022-12-20T16:49:52.342Z,101973.06
2022-12-20T16:52:23.525Z,101974.31
2022-12-20T16:54:50.371Z,101969.56
2022-12-20T16:57:16.793Z,101974.31
2022-12-20T16:59:43.223Z,101975.41
2022-12-20T17:02:28.815Z,101972.28
2022-12-20T17:04:56.308Z,101980.16
2022-12-20T17:07:22.714Z,101978.72
2022-12-20T17:09:49.354Z,101974.31
2022-12-20T17:12:21.104Z,101976.84
2022-12-20T17:14:48.901Z,101972.34
2022-12-20T17:17:15.372Z,101969.25
2022-12-20T17:19:41.911Z,101975.84
2022-12-20T17:24:56.373Z,101974.50
2022-12-20T17:27:22.821Z,101972.47
2022-12-20T17:29:50.673Z,101972.16
2022-12-20T17:32:20.953Z,101975.09
2022-12-20T17:34:47.522Z,101968.88
2022-12-20T17:37:13.983Z,101965.94
2022-12-20T17:39:40.470Z,101965.22
2022-12-20T17:42:09.392Z,101959.41
2022-12-20T17:44:35.799Z,101965.75
2022-12-20T17:47:02.293Z,101953.88
2022-12-20T17:49:28.683Z,101952.00
2022-12-20T17:51:56.197Z,101949.84
2022-12-20T17:54:30.781Z,101958.09
2022-12-20T17:57:01.509Z,101949.16
2022-12-20T17:59:29.247Z,101950.09
2022-12-20T18:01:55.927Z,101943.09
2022-12-20T18:04:22.571Z,101947.09
2022-12-20T18:06:49.852Z,101944.16
2022-12-20T18:09:21.479Z,101944.16
2022-12-20T18:11:48.700Z,101946.19
2022-12-20T18:14:15.625Z,101943.09
2022-12-20T18:16:42.189Z,101945.59
2022-12-20T18:19:15.795Z,101955.41
2022-12-20T18:21:42.319Z,101955.41
2022-12-20T18:24:13.341Z,101946.28
2022-12-20T18:26:40.071Z,101952.13
2022-12-20T18:29:06.497Z,101963.47
2022-12-20T18:31:34.791Z,101951.00
2022-12-20T18:34:02.489Z,101945.91
2022-12-20T18:36:36.916Z,101937.72
2022-12-20T18:39:06.329Z,101938.63
2022-12-20T18:41:33.084Z,101934.25
2022-12-20T18:44:01.881Z,101935.91
2022-12-20T18:46:29.198Z,101936.81
2022-12-20T18:48:58.090Z,101938.78
2022-12-20T18:51:30.443Z,101945.31
2022-12-20T18:53:58.877Z,101945.53
2022-12-20T18:56:31.450Z,101937.72
2022-12-20T18:59:04.634Z,101926.97
2022-12-20T19:01:35.876Z,101932.69
2022-12-20T19:04:04.877Z,101939.63
2022-12-20T19:06:32.407Z,101937.44
2022-12-20T19:09:00.192Z,101925.28
2022-12-20T19:11:26.650Z,101937.44
2022-12-20T19:13:53.092Z,101928.03
2022-12-20T19:16:22.336Z,101924.94
2022-12-20T19:18:49.752Z,101920.38
2022-12-20T19:21:24.328Z,101929.47
2022-12-20T19:23:53.540Z,101925.09
2022-12-20T19:26:21.571Z,101926.75
2022-12-20T19:28:48.890Z,101928.94
2022-12-20T19:31:23.680Z,101921.50
2022-12-20T19:34:12.631Z,101934.56
2022-12-20T19:36:42.712Z,101938.56
2022-12-20T19:39:14.652Z,101936.44
2022-12-20T19:41:41.223Z,101927.72
2022-12-20T19:44:08.801Z,101937.41
2022-12-20T19:46:35.511Z,101935.38
2022-12-20T19:49:02.109Z,101923.31
2022-12-20T19:51:28.903Z,101922.41
2022-12-20T19:53:57.443Z,101924.78
2022-12-20T19:56:33.610Z,101922.13
2022-12-20T19:59:00.995Z,101919.25
2022-12-20T20:01:28.419Z,101913.09
2022-12-20T20:03:56.870Z,101918.56
2022-12-20T20:06:24.703Z,101921.13
2022-12-20T20:08:51.532Z,101928.94
2022-12-20T20:11:20.138Z,101921.88
2022-12-20T20:13:47.127Z,101913.72
2022-12-20T20:16:19.987Z,101920.84
2022-12-20T20:18:49.108Z,101914.22
2022-12-20T20:21:20.855Z,101916.75
2022-12-20T20:23:47.417Z,101914.41
2022-12-20T20:26:17.469Z,101921.56
2022-12-20T20:28:44.813Z,101924.53
2022-12-20T20:31:16.970Z,101921.22
2022-12-20T20:33:43.961Z,101919.41
2022-12-20T20:36:14.198Z,101932.88
2022-12-20T20:38:40.883Z,101924.44
2022-12-20T20:41:07.490Z,101918.81
2022-12-20T20:43:37.608Z,101918.81
2022-12-20T20:46:05.086Z,101920.06
2022-12-20T20:48:31.953Z,101901.81
2022-12-20T20:50:58.847Z,101912.19
2022-12-20T20:53:31.052Z,101916.75
2022-12-20T20:55:59.708Z,101908.41
2022-12-20T20:58:27.899Z,101910.22
2022-12-20T21:00:59.437Z,101913.09
2022-12-20T21:03:27.073Z,101910.75
2022-12-20T21:06:33.041Z,101904.00
2022-12-20T21:08:40.076Z,101898.31
2022-12-20T21:11:07.375Z,101907.63
2022-12-20T21:13:34.076Z,101908.34
2022-12-20T21:16:12.707Z,101902.50
2022-12-20T21:18:39.690Z,101893.41
2022-12-20T21:21:11.531Z,101889.63
2022-12-20T21:23:39.604Z,101901.06
2022-12-20T21:26:07.540Z,101902.50
2022-12-20T21:28:34.447Z,101895.91
2022-12-20T21:31:02.126Z,101908.16
2022-12-20T21:33:29.181Z,101895.19
2022-12-20T21:36:11.523Z,101882.19
2022-12-20T21:38:37.983Z,101883.78
2022-12-20T21:41:07.925Z,101875.28
2022-12-20T21:43:34.506Z,101876.97
2022-12-20T21:46:01.017Z,101900.69
2022-12-20T21:48:29.653Z,101895.38
2022-12-20T21:51:12.000Z,101897.94
2022-12-20T21:53:43.672Z,101897.19
2022-12-20T21:56:10.686Z,101889.03
2022-12-20T21:58:37.817Z,101897.41
2022-12-20T22:01:05.731Z,101897.72
2022-12-20T22:03:54.805Z,101892.81
2022-12-20T22:06:21.738Z,101888.03
2022-12-20T22:08:48.275Z,101878.38
2022-12-20T22:11:17.226Z,101888.91
2022-12-20T22:13:44.618Z,101879.41
2022-12-20T22:16:20.858Z,101877.56
2022-12-20T22:18:52.606Z,101865.34
2022-12-20T22:21:21.469Z,101871.75
2022-12-20T22:23:48.369Z,101873.06
2022-12-20T22:26:20.093Z,101867.44
2022-12-20T22:28:51.978Z,101870.31
2022-12-20T22:31:19.105Z,101868.34
2022-12-20T22:33:46.188Z,101865.28
2022-12-20T22:36:14.609Z,101864.53
2022-12-20T22:38:42.803Z,101858.91
2022-12-20T22:41:15.494Z,101866.25
2022-12-20T22:43:44.580Z,101862.03
2022-12-20T22:46:12.290Z,101851.19
2022-12-20T22:48:39.551Z,101853.75
2022-12-20T22:51:12.653Z,101857.75
2022-12-20T22:53:40.180Z,101855.78
2022-12-20T22:56:07.657Z,101854.47
2022-12-20T22:58:35.316Z,101856.13
2022-12-20T23:01:05.553Z,101853.16
2022-12-20T23:03:32.285Z,101845.19
2022-12-20T23:06:01.652Z,101847.34
2022-12-20T23:08:32.113Z,101823.59
2022-12-20T23:11:20.272Z,101823.97
2022-12-20T23:14:05.103Z,101832.75
2022-12-20T23:16:31.612Z,101837.47
2022-12-20T23:19:00.800Z,101827.38
2022-12-20T23:21:46.129Z,101820.94
2022-12-20T23:24:13.429Z,101813.34
2022-12-20T23:26:40.951Z,101809.03
2022-12-20T23:29:08.963Z,101808.28
2022-12-20T23:31:35.732Z,101794.63
2022-12-20T23:34:02.799Z,101793.72
2022-12-20T23:36:30.198Z,101790.63
2022-12-20T23:38:56.919Z,101802.84
2022-12-20T23:41:23.625Z,101803.56
2022-12-20T23:43:50.101Z,101790.63
2022-12-20T23:46:18.765Z,101784.75
2022-12-20T23:48:45.578Z,101774.00
2022-12-20T23:51:12.331Z,101764.56
2022-12-20T23:53:39.168Z,101768.41
2022-12-20T23:56:07.955Z,101777.13
2022-12-20T23:58:35.073Z,101772.56
